Terminal Aerodrome Forecast
Issued by NWS

Home | Current Version | Previous Version | Text Only | Print | Product List | Glossary On
Versions: 1 2 3 4 5 6 7 8 9 10 11 12 13 14 15
000
FTUS43 KEAX 241700
TAFMKC
TAF
KMKC 241730Z 2418/2518 29014G24KT P6SM OVC040
     FM250000 30011KT P6SM FEW040 SCT180
     FM251400 27010KT P6SM SCT080=

USA.gov is the U.S. government's official web portal to all federal, state and local government web resources and services.